sensor_id;sensor_type;location;lat;lon;timestamp;temperature;humidity
1992;DHT22;997;48.448;8.924;2023-08-24T03:01:59;21.30;99.90
1992;DHT22;997;48.448;8.924;2023-08-24T03:04:25;21.20;99.90
1992;DHT22;997;48.448;8.924;2023-08-24T03:06:51;21.20;99.90
1992;DHT22;997;48.448;8.924;2023-08-24T03:09:17;21.00;99.90
1992;DHT22;997;48.448;8.924;2023-08-24T03:11:42;21.10;99.90
1992;DHT22;997;48.448;8.924;2023-08-24T03:14:08;21.10;99.90
1992;DHT22;997;48.448;8.924;2023-08-24T03:16:34;21.10;99.90
1992;DHT22;997;48.448;8.924;2023-08-24T03:19:00;21.10;99.90
1992;DHT22;997;48.448;8.924;2023-08-24T03:21:25;21.20;99.90
1992;DHT22;997;48.448;8.924;2023-08-24T03:23:51;21.00;99.90
1992;DHT22;997;48.448;8.924;2023-08-24T03:26:16;21.10;99.90
1992;DHT22;997;48.448;8.924;2023-08-24T03:28:43;21.10;99.90
1992;DHT22;997;48.448;8.924;2023-08-24T03:31:08;21.20;99.90
1992;DHT22;997;48.448;8.924;2023-08-24T03:33:34;21.10;99.90
1992;DHT22;997;48.448;8.924;2023-08-24T03:36:01;21.10;99.90
1992;DHT22;997;48.448;8.924;2023-08-24T03:38:27;21.10;99.90
1992;DHT22;997;48.448;8.924;2023-08-24T03:41:00;21.10;99.90
1992;DHT22;997;48.448;8.924;2023-08-24T03:43:26;21.00;99.90
1992;DHT22;997;48.448;8.924;2023-08-24T03:45:51;21.00;99.90
1992;DHT22;997;48.448;8.924;2023-08-24T03:48:17;20.90;99.90
1992;DHT22;997;48.448;8.924;2023-08-24T03:50:43;20.90;99.90
1992;DHT22;997;48.448;8.924;2023-08-24T03:53:09;20.80;99.90
1992;DHT22;997;48.448;8.924;2023-08-24T03:55:34;20.80;99.90
1992;DHT22;997;48.448;8.924;2023-08-24T03:58:00;20.70;99.90
1992;DHT22;997;48.448;8.924;2023-08-24T04:00:26;20.70;99.90
1992;DHT22;997;48.448;8.924;2023-08-24T04:02:51;20.60;99.90
1992;DHT22;997;48.448;8.924;2023-08-24T04:05:17;20.60;99.90
1992;DHT22;997;48.448;8.924;2023-08-24T04:07:43;20.40;99.90
1992;DHT22;997;48.448;8.924;2023-08-24T04:10:09;20.30;99.90
1992;DHT22;997;48.448;8.924;2023-08-24T04:12:34;20.30;99.90
1992;DHT22;997;48.448;8.924;2023-08-24T04:15:00;20.30;99.90
1992;DHT22;997;48.448;8.924;2023-08-24T04:17:26;20.30;99.90
1992;DHT22;997;48.448;8.924;2023-08-24T04:19:52;20.30;99.90
1992;DHT22;997;48.448;8.924;2023-08-24T04:22:18;20.30;99.90
1992;DHT22;997;48.448;8.924;2023-08-24T04:24:43;20.30;99.90
1992;DHT22;997;48.448;8.924;2023-08-24T04:27:09;20.20;99.90
1992;DHT22;997;48.448;8.924;2023-08-24T04:29:35;20.20;99.90
1992;DHT22;997;48.448;8.924;2023-08-24T04:32:01;20.30;99.90
1992;DHT22;997;48.448;8.924;2023-08-24T04:34:26;20.30;99.90
1992;DHT22;997;48.448;8.924;2023-08-24T04:36:52;20.30;99.90
1992;DHT22;997;48.448;8.924;2023-08-24T04:39:18;20.20;99.90
1992;DHT22;997;48.448;8.924;2023-08-24T04:41:46;20.20;99.90
1992;DHT22;997;48.448;8.924;2023-08-24T04:44:12;20.20;99.90
1992;DHT22;997;48.448;8.924;2023-08-24T04:46:37;20.20;99.90
1992;DHT22;997;48.448;8.924;2023-08-24T04:49:03;20.20;99.90
1992;DHT22;997;48.448;8.924;2023-08-24T04:51:29;20.30;99.90
1992;DHT22;997;48.448;8.924;2023-08-24T04:53:55;20.20;99.90
1992;DHT22;997;48.448;8.924;2023-08-24T04:56:20;20.30;99.90
1992;DHT22;997;48.448;8.924;2023-08-24T04:58:57;20.30;99.90
1992;DHT22;997;48.448;8.924;2023-08-24T05:01:23;20.20;99.90
1992;DHT22;997;48.448;8.924;2023-08-24T05:03:51;20.30;99.90
1992;DHT22;997;48.448;8.924;2023-08-24T05:06:17;20.30;99.90
1992;DHT22;997;48.448;8.924;2023-08-24T05:08:43;20.20;99.90
1992;DHT22;997;48.448;8.924;2023-08-24T05:11:18;20.10;99.90
1992;DHT22;997;48.448;8.924;2023-08-24T05:13:45;20.10;99.90
1992;DHT22;997;48.448;8.924;2023-08-24T05:16:11;20.30;99.90
1992;DHT22;997;48.448;8.924;2023-08-24T05:18:37;20.30;99.90
1992;DHT22;997;48.448;8.924;2023-08-24T05:21:04;20.30;99.90
1992;DHT22;997;48.448;8.924;2023-08-24T05:23:30;20.40;99.90
1992;DHT22;997;48.448;8.924;2023-08-24T05:25:57;20.40;99.90
1992;DHT22;997;48.448;8.924;2023-08-24T05:28:27;20.40;99.90
1992;DHT22;997;48.448;8.924;2023-08-24T05:30:53;20.50;99.90
1992;DHT22;997;48.448;8.924;2023-08-24T05:33:23;20.60;99.90
1992;DHT22;997;48.448;8.924;2023-08-24T05:35:50;20.60;99.90
1992;DHT22;997;48.448;8.924;2023-08-24T05:38:16;20.70;99.90
1992;DHT22;997;48.448;8.924;2023-08-24T05:40:43;20.70;99.90
1992;DHT22;997;48.448;8.924;2023-08-24T05:43:12;20.70;99.90
1992;DHT22;997;48.448;8.924;2023-08-24T05:45:37;20.70;99.90
1992;DHT22;997;48.448;8.924;2023-08-24T05:48:05;20.70;99.90
1992;DHT22;997;48.448;8.924;2023-08-24T05:50:31;20.70;99.90
1992;DHT22;997;48.448;8.924;2023-08-24T05:52:57;20.60;99.90
1992;DHT22;997;48.448;8.924;2023-08-24T05:55:22;20.70;99.90
1992;DHT22;997;48.448;8.924;2023-08-24T05:57:48;20.70;99.90
1992;DHT22;997;48.448;8.924;2023-08-24T06:00:14;20.80;99.90
1992;DHT22;997;48.448;8.924;2023-08-24T06:02:40;20.90;99.90
1992;DHT22;997;48.448;8.924;2023-08-24T06:05:06;21.00;99.90
1992;DHT22;997;48.448;8.924;2023-08-24T06:07:33;21.00;99.90
1992;DHT22;997;48.448;8.924;2023-08-24T06:09:59;21.00;99.90
1992;DHT22;997;48.448;8.924;2023-08-24T06:12:25;21.00;99.90
1992;DHT22;997;48.448;8.924;2023-08-24T06:14:50;21.10;99.90
1992;DHT22;997;48.448;8.924;2023-08-24T06:17:16;21.10;99.90
1992;DHT22;997;48.448;8.924;2023-08-24T06:19:42;21.20;99.90
1992;DHT22;997;48.448;8.924;2023-08-24T06:22:08;21.10;99.90
1992;DHT22;997;48.448;8.924;2023-08-24T06:24:33;21.10;99.90
1992;DHT22;997;48.448;8.924;2023-08-24T06:26:59;21.20;99.90
1992;DHT22;997;48.448;8.924;2023-08-24T06:29:25;21.20;99.90
1992;DHT22;997;48.448;8.924;2023-08-24T06:31:50;21.20;99.90
1992;DHT22;997;48.448;8.924;2023-08-24T06:34:16;21.30;99.90
1992;DHT22;997;48.448;8.924;2023-08-24T06:36:41;21.20;99.90
1992;DHT22;997;48.448;8.924;2023-08-24T06:39:07;21.30;99.90
1992;DHT22;997;48.448;8.924;2023-08-24T06:41:34;21.40;99.90
1992;DHT22;997;48.448;8.924;2023-08-24T06:44:01;21.50;99.90
1992;DHT22;997;48.448;8.924;2023-08-24T06:46:26;21.50;99.90
1992;DHT22;997;48.448;8.924;2023-08-24T06:48:52;21.50;99.90
1992;DHT22;997;48.448;8.924;2023-08-24T06:51:18;21.50;99.90
1992;DHT22;997;48.448;8.924;2023-08-24T06:53:43;21.50;99.90
1992;DHT22;997;48.448;8.924;2023-08-24T06:56:10;21.60;99.90
1992;DHT22;997;48.448;8.924;2023-08-24T06:58:36;21.70;99.90
1992;DHT22;997;48.448;8.924;2023-08-24T07:01:02;21.70;99.90
1992;DHT22;997;48.448;8.924;2023-08-24T07:03:31;21.70;99.90
1992;DHT22;997;48.448;8.924;2023-08-24T07:05:58;21.70;99.90
1992;DHT22;997;48.448;8.924;2023-08-24T07:08:24;21.80;99.90
1992;DHT22;997;48.448;8.924;2023-08-24T07:10:50;21.90;99.90
1992;DHT22;997;48.448;8.924;2023-08-24T07:13:15;22.00;99.90
1992;DHT22;997;48.448;8.924;2023-08-24T07:15:42;22.00;99.90
1992;DHT22;997;48.448;8.924;2023-08-24T07:18:08;22.00;99.90
1992;DHT22;997;48.448;8.924;2023-08-24T07:20:34;22.00;99.90
1992;DHT22;997;48.448;8.924;2023-08-24T07:23:00;22.00;99.90
1992;DHT22;997;48.448;8.924;2023-08-24T07:25:26;21.90;99.90
1992;DHT22;997;48.448;8.924;2023-08-24T07:27:53;21.90;99.90
1992;DHT22;997;48.448;8.924;2023-08-24T07:30:26;21.90;99.90
1992;DHT22;997;48.448;8.924;2023-08-24T07:32:55;22.10;99.90
1992;DHT22;997;48.448;8.924;2023-08-24T07:35:21;22.20;99.90
1992;DHT22;997;48.448;8.924;2023-08-24T07:37:52;22.20;99.90
1992;DHT22;997;48.448;8.924;2023-08-24T07:40:18;22.10;99.90
1992;DHT22;997;48.448;8.924;2023-08-24T07:42:48;22.10;99.90
1992;DHT22;997;48.448;8.924;2023-08-24T07:45:16;22.00;99.90
1992;DHT22;997;48.448;8.924;2023-08-24T07:47:42;22.10;99.90
1992;DHT22;997;48.448;8.924;2023-08-24T07:50:08;22.20;99.90
1992;DHT22;997;48.448;8.924;2023-08-24T07:52:34;22.30;99.90
1992;DHT22;997;48.448;8.924;2023-08-24T07:55:00;22.50;99.90
1992;DHT22;997;48.448;8.924;2023-08-24T07:57:29;22.60;99.90
1992;DHT22;997;48.448;8.924;2023-08-24T07:59:54;22.80;99.90
1992;DHT22;997;48.448;8.924;2023-08-24T08:02:20;22.70;99.90
1992;DHT22;997;48.448;8.924;2023-08-24T08:04:46;22.70;99.90
1992;DHT22;997;48.448;8.924;2023-08-24T08:07:12;23.00;99.90
1992;DHT22;997;48.448;8.924;2023-08-24T08:09:38;23.20;99.90
1992;DHT22;997;48.448;8.924;2023-08-24T08:12:04;23.40;99.90
1992;DHT22;997;48.448;8.924;2023-08-24T08:14:29;23.80;99.90
1992;DHT22;997;48.448;8.924;2023-08-24T08:16:56;24.00;99.90
1992;DHT22;997;48.448;8.924;2023-08-24T08:19:22;24.30;99.90
1992;DHT22;997;48.448;8.924;2023-08-24T08:21:49;24.50;99.90
1992;DHT22;997;48.448;8.924;2023-08-24T08:24:14;24.70;99.90
1992;DHT22;997;48.448;8.924;2023-08-24T08:26:40;24.90;99.90
1992;DHT22;997;48.448;8.924;2023-08-24T08:29:06;25.00;99.90
1992;DHT22;997;48.448;8.924;2023-08-24T08:31:31;25.20;99.90
1992;DHT22;997;48.448;8.924;2023-08-24T08:33:57;25.40;99.90
1992;DHT22;997;48.448;8.924;2023-08-24T08:36:22;25.50;99.90
1992;DHT22;997;48.448;8.924;2023-08-24T08:38:48;25.60;99.90
1992;DHT22;997;48.448;8.924;2023-08-24T08:41:15;25.60;99.90
1992;DHT22;997;48.448;8.924;2023-08-24T08:43:42;25.50;99.90
1992;DHT22;997;48.448;8.924;2023-08-24T08:46:08;25.60;99.90
1992;DHT22;997;48.448;8.924;2023-08-24T08:48:35;25.50;99.90
1992;DHT22;997;48.448;8.924;2023-08-24T08:51:02;25.50;99.90
1992;DHT22;997;48.448;8.924;2023-08-24T08:53:28;25.40;99.90
1992;DHT22;997;48.448;8.924;2023-08-24T08:55:54;25.50;99.90
1992;DHT22;997;48.448;8.924;2023-08-24T08:58:21;25.60;99.90
1992;DHT22;997;48.448;8.924;2023-08-24T09:00:47;25.80;99.90
1992;DHT22;997;48.448;8.924;2023-08-24T09:03:16;26.00;99.90
1992;DHT22;997;48.448;8.924;2023-08-24T09:05:43;26.20;99.90
1992;DHT22;997;48.448;8.924;2023-08-24T09:08:09;26.40;99.90
1992;DHT22;997;48.448;8.924;2023-08-24T09:10:35;26.60;99.90
1992;DHT22;997;48.448;8.924;2023-08-24T09:13:00;26.70;99.90
1992;DHT22;997;48.448;8.924;2023-08-24T09:18:07;27.00;99.90
1992;DHT22;997;48.448;8.924;2023-08-24T09:20:33;27.10;99.90
1992;DHT22;997;48.448;8.924;2023-08-24T09:22:59;27.10;99.90
1992;DHT22;997;48.448;8.924;2023-08-24T09:25:25;27.20;99.90
1992;DHT22;997;48.448;8.924;2023-08-24T09:28:01;27.40;99.90
1992;DHT22;997;48.448;8.924;2023-08-24T09:30:35;27.40;99.90
1992;DHT22;997;48.448;8.924;2023-08-24T09:33:10;27.50;99.90
1992;DHT22;997;48.448;8.924;2023-08-24T09:35:36;27.40;99.90
1992;DHT22;997;48.448;8.924;2023-08-24T09:38:18;27.50;99.90
1992;DHT22;997;48.448;8.924;2023-08-24T09:40:54;27.60;99.90
1992;DHT22;997;48.448;8.924;2023-08-24T09:43:21;27.60;99.90
1992;DHT22;997;48.448;8.924;2023-08-24T09:45:54;27.70;99.90
1992;DHT22;997;48.448;8.924;2023-08-24T09:48:21;27.80;99.90
1992;DHT22;997;48.448;8.924;2023-08-24T09:50:52;27.90;99.90
1992;DHT22;997;48.448;8.924;2023-08-24T09:53:19;28.00;99.90
1992;DHT22;997;48.448;8.924;2023-08-24T09:56:01;28.20;99.90
1992;DHT22;997;48.448;8.924;2023-08-24T09:58:28;28.20;99.90
1992;DHT22;997;48.448;8.924;2023-08-24T10:00:55;28.10;99.90
1992;DHT22;997;48.448;8.924;2023-08-24T10:03:24;28.00;99.90
1992;DHT22;997;48.448;8.924;2023-08-24T10:05:52;28.00;99.90
1992;DHT22;997;48.448;8.924;2023-08-24T10:08:26;28.20;99.90
1992;DHT22;997;48.448;8.924;2023-08-24T10:10:56;28.00;99.90
1992;DHT22;997;48.448;8.924;2023-08-24T10:13:41;28.00;99.90
1992;DHT22;997;48.448;8.924;2023-08-24T10:16:12;28.00;99.90
1992;DHT22;997;48.448;8.924;2023-08-24T10:18:40;28.20;99.90
1992;DHT22;997;48.448;8.924;2023-08-24T10:21:07;28.50;99.90
1992;DHT22;997;48.448;8.924;2023-08-24T10:23:34;28.80;99.90
1992;DHT22;997;48.448;8.924;2023-08-24T10:26:02;29.00;99.90
1992;DHT22;997;48.448;8.924;2023-08-24T10:28:29;29.20;99.90
1992;DHT22;997;48.448;8.924;2023-08-24T10:30:59;29.40;99.90
1992;DHT22;997;48.448;8.924;2023-08-24T10:33:26;29.60;99.90
1992;DHT22;997;48.448;8.924;2023-08-24T10:35:53;29.70;99.90
1992;DHT22;997;48.448;8.924;2023-08-24T10:38:29;29.70;99.90
1992;DHT22;997;48.448;8.924;2023-08-24T10:41:04;29.80;99.90
1992;DHT22;997;48.448;8.924;2023-08-24T10:43:34;30.00;99.90
1992;DHT22;997;48.448;8.924;2023-08-24T10:46:01;29.90;99.90
1992;DHT22;997;48.448;8.924;2023-08-24T10:51:22;29.70;99.90
1992;DHT22;997;48.448;8.924;2023-08-24T10:56:18;29.70;99.90
1992;DHT22;997;48.448;8.924;2023-08-24T10:58:45;29.60;99.90
1992;DHT22;997;48.448;8.924;2023-08-24T11:01:21;29.60;99.90
1992;DHT22;997;48.448;8.924;2023-08-24T11:03:54;29.60;99.90
1992;DHT22;997;48.448;8.924;2023-08-24T11:06:21;29.70;99.90
1992;DHT22;997;48.448;8.924;2023-08-24T11:08:48;29.60;99.90
1992;DHT22;997;48.448;8.924;2023-08-24T11:11:21;29.60;99.90
1992;DHT22;997;48.448;8.924;2023-08-24T11:14:20;29.60;99.90
1992;DHT22;997;48.448;8.924;2023-08-24T11:16:48;29.60;99.90
1992;DHT22;997;48.448;8.924;2023-08-24T11:19:15;29.70;99.90
1992;DHT22;997;48.448;8.924;2023-08-24T11:21:45;29.60;99.90
1992;DHT22;997;48.448;8.924;2023-08-24T11:24:13;29.70;99.90
1992;DHT22;997;48.448;8.924;2023-08-24T11:26:47;30.00;99.90
1992;DHT22;997;48.448;8.924;2023-08-24T11:29:13;30.30;99.90
1992;DHT22;997;48.448;8.924;2023-08-24T11:31:39;30.50;99.90
1992;DHT22;997;48.448;8.924;2023-08-24T11:34:06;30.70;99.90
1992;DHT22;997;48.448;8.924;2023-08-24T11:36:41;30.90;99.90
1992;DHT22;997;48.448;8.924;2023-08-24T11:39:17;31.10;99.90
1992;DHT22;997;48.448;8.924;2023-08-24T11:41:58;31.30;99.90
1992;DHT22;997;48.448;8.924;2023-08-24T11:44:24;31.40;99.90
1992;DHT22;997;48.448;8.924;2023-08-24T11:46:50;31.60;99.90
1992;DHT22;997;48.448;8.924;2023-08-24T11:49:16;31.80;99.90
1992;DHT22;997;48.448;8.924;2023-08-24T11:51:42;32.10;99.90
1992;DHT22;997;48.448;8.924;2023-08-24T11:54:07;32.20;99.90
1992;DHT22;997;48.448;8.924;2023-08-24T11:56:43;32.30;99.90
1992;DHT22;997;48.448;8.924;2023-08-24T11:59:13;32.30;99.90
1992;DHT22;997;48.448;8.924;2023-08-24T12:01:40;32.40;99.90
1992;DHT22;997;48.448;8.924;2023-08-24T12:04:06;32.50;99.90
1992;DHT22;997;48.448;8.924;2023-08-24T12:06:32;32.60;99.90
1992;DHT22;997;48.448;8.924;2023-08-24T12:08:57;32.70;99.90
1992;DHT22;997;48.448;8.924;2023-08-24T12:11:23;32.70;99.90
1992;DHT22;997;48.448;8.924;2023-08-24T12:13:52;32.90;99.90
1992;DHT22;997;48.448;8.924;2023-08-24T12:16:19;33.00;99.90
1992;DHT22;997;48.448;8.924;2023-08-24T12:18:58;33.10;99.90
1992;DHT22;997;48.448;8.924;2023-08-24T12:21:25;33.30;99.90
1992;DHT22;997;48.448;8.924;2023-08-24T12:24:01;33.50;99.90
1992;DHT22;997;48.448;8.924;2023-08-24T12:26:27;33.70;99.90
1992;DHT22;997;48.448;8.924;2023-08-24T12:28:58;33.70;99.90
1992;DHT22;997;48.448;8.924;2023-08-24T12:31:29;33.80;99.90
1992;DHT22;997;48.448;8.924;2023-08-24T12:34:07;34.00;99.90
1992;DHT22;997;48.448;8.924;2023-08-24T12:36:37;34.10;99.90
1992;DHT22;997;48.448;8.924;2023-08-24T12:39:04;34.30;99.90
1992;DHT22;997;48.448;8.924;2023-08-24T12:41:30;34.40;99.90
1992;DHT22;997;48.448;8.924;2023-08-24T12:43:56;34.60;99.90
1992;DHT22;997;48.448;8.924;2023-08-24T12:46:22;34.70;99.90
1992;DHT22;997;48.448;8.924;2023-08-24T12:48:49;34.90;99.90
1992;DHT22;997;48.448;8.924;2023-08-24T12:51:15;35.00;99.90
1992;DHT22;997;48.448;8.924;2023-08-24T12:53:41;35.20;99.90
1992;DHT22;997;48.448;8.924;2023-08-24T12:56:07;35.20;99.90
1992;DHT22;997;48.448;8.924;2023-08-24T12:58:33;35.20;99.90
1992;DHT22;997;48.448;8.924;2023-08-24T13:00:59;35.20;99.90
1992;DHT22;997;48.448;8.924;2023-08-24T13:03:25;35.20;99.90
1992;DHT22;997;48.448;8.924;2023-08-24T13:05:51;35.20;99.90
1992;DHT22;997;48.448;8.924;2023-08-24T13:08:16;35.20;99.90
1992;DHT22;997;48.448;8.924;2023-08-24T13:10:42;35.20;99.90
1992;DHT22;997;48.448;8.924;2023-08-24T13:13:08;35.30;99.90
1992;DHT22;997;48.448;8.924;2023-08-24T13:15:33;35.30;99.90
1992;DHT22;997;48.448;8.924;2023-08-24T13:17:59;35.20;99.90
1992;DHT22;997;48.448;8.924;2023-08-24T13:20:25;35.10;99.90
1992;DHT22;997;48.448;8.924;2023-08-24T13:22:54;35.00;99.90
1992;DHT22;997;48.448;8.924;2023-08-24T13:25:19;34.90;99.90
1992;DHT22;997;48.448;8.924;2023-08-24T13:27:45;34.90;99.90
1992;DHT22;997;48.448;8.924;2023-08-24T13:30:11;34.90;99.90
1992;DHT22;997;48.448;8.924;2023-08-24T13:32:36;34.90;99.90
1992;DHT22;997;48.448;8.924;2023-08-24T13:35:05;35.00;99.90
1992;DHT22;997;48.448;8.924;2023-08-24T13:37:31;35.10;99.90
1992;DHT22;997;48.448;8.924;2023-08-24T13:39:58;35.20;99.90
1992;DHT22;997;48.448;8.924;2023-08-24T13:42:24;35.20;99.90
1992;DHT22;997;48.448;8.924;2023-08-24T13:44:50;35.40;99.90
1992;DHT22;997;48.448;8.924;2023-08-24T13:47:15;35.50;99.90
1992;DHT22;997;48.448;8.924;2023-08-24T13:49:41;35.60;99.90
1992;DHT22;997;48.448;8.924;2023-08-24T13:52:07;35.90;99.90
1992;DHT22;997;48.448;8.924;2023-08-24T13:54:34;36.10;99.90
1992;DHT22;997;48.448;8.924;2023-08-24T13:56:59;36.40;99.90
1992;DHT22;997;48.448;8.924;2023-08-24T13:59:26;36.70;99.90
1992;DHT22;997;48.448;8.924;2023-08-24T14:01:52;36.80;96.90
1992;DHT22;997;48.448;8.924;2023-08-24T14:04:18;36.90;98.10
1992;DHT22;997;48.448;8.924;2023-08-24T14:06:43;37.10;96.50
1992;DHT22;997;48.448;8.924;2023-08-24T14:09:09;37.10;96.30
1992;DHT22;997;48.448;8.924;2023-08-24T14:11:35;37.30;97.20
1992;DHT22;997;48.448;8.924;2023-08-24T14:14:00;37.40;95.70
1992;DHT22;997;48.448;8.924;2023-08-24T14:16:26;37.50;95.30
1992;DHT22;997;48.448;8.924;2023-08-24T14:18:52;37.70;95.10
1992;DHT22;997;48.448;8.924;2023-08-24T14:21:19;37.90;93.40
1992;DHT22;997;48.448;8.924;2023-08-24T14:23:49;38.20;93.90
1992;DHT22;997;48.448;8.924;2023-08-24T14:26:14;38.30;92.10
1992;DHT22;997;48.448;8.924;2023-08-24T14:28:53;38.50;92.80
1992;DHT22;997;48.448;8.924;2023-08-24T14:31:26;38.50;91.90
1992;DHT22;997;48.448;8.924;2023-08-24T14:33:53;38.40;90.40
1992;DHT22;997;48.448;8.924;2023-08-24T14:36:19;38.30;91.00
1992;DHT22;997;48.448;8.924;2023-08-24T14:38:49;38.20;90.20
1992;DHT22;997;48.448;8.924;2023-08-24T14:41:15;37.90;90.80
1992;DHT22;997;48.448;8.924;2023-08-24T14:43:41;37.60;90.90
1992;DHT22;997;48.448;8.924;2023-08-24T14:46:07;37.60;91.90
1992;DHT22;997;48.448;8.924;2023-08-24T14:48:33;37.60;90.90
1992;DHT22;997;48.448;8.924;2023-08-24T14:50:59;37.30;91.00
1992;DHT22;997;48.448;8.924;2023-08-24T14:53:26;37.40;90.90
1992;DHT22;997;48.448;8.924;2023-08-24T14:55:56;37.60;92.00
1992;DHT22;997;48.448;8.924;2023-08-24T14:58:22;37.80;89.20
1992;DHT22;997;48.448;8.924;2023-08-24T15:00:52;37.90;91.00
1992;DHT22;997;48.448;8.924;2023-08-24T15:03:18;38.30;90.50
1992;DHT22;997;48.448;8.924;2023-08-24T15:06:05;38.60;90.80
1992;DHT22;997;48.448;8.924;2023-08-24T15:08:32;38.70;90.00
1992;DHT22;997;48.448;8.924;2023-08-24T15:10:59;38.60;90.30
1992;DHT22;997;48.448;8.924;2023-08-24T15:13:27;38.10;90.70
1992;DHT22;997;48.448;8.924;2023-08-24T15:15:55;37.30;91.90
1992;DHT22;997;48.448;8.924;2023-08-24T15:18:21;36.50;94.20
1992;DHT22;997;48.448;8.924;2023-08-24T15:20:47;35.90;96.00
1992;DHT22;997;48.448;8.924;2023-08-24T15:23:29;35.20;97.50
1992;DHT22;997;48.448;8.924;2023-08-24T15:25:57;34.70;99.20
1992;DHT22;997;48.448;8.924;2023-08-24T15:28:23;34.20;99.90
1992;DHT22;997;48.448;8.924;2023-08-24T15:30:49;33.80;99.90
1992;DHT22;997;48.448;8.924;2023-08-24T15:33:17;33.00;99.90
1992;DHT22;997;48.448;8.924;2023-08-24T15:35:43;32.60;99.90
1992;DHT22;997;48.448;8.924;2023-08-24T15:38:09;32.50;99.90
1992;DHT22;997;48.448;8.924;2023-08-24T15:40:36;32.40;99.90
1992;DHT22;997;48.448;8.924;2023-08-24T15:43:02;32.50;99.90
1992;DHT22;997;48.448;8.924;2023-08-24T15:45:29;32.20;99.90
1992;DHT22;997;48.448;8.924;2023-08-24T15:47:58;31.90;99.90
1992;DHT22;997;48.448;8.924;2023-08-24T15:50:24;31.80;99.90
1992;DHT22;997;48.448;8.924;2023-08-24T15:52:50;31.40;99.90
1992;DHT22;997;48.448;8.924;2023-08-24T15:55:16;31.20;99.90
1992;DHT22;997;48.448;8.924;2023-08-24T15:57:41;30.60;99.90
1992;DHT22;997;48.448;8.924;2023-08-24T16:00:07;30.30;99.90
1992;DHT22;997;48.448;8.924;2023-08-24T16:02:37;29.80;99.90
1992;DHT22;997;48.448;8.924;2023-08-24T16:05:03;29.70;99.90
1992;DHT22;997;48.448;8.924;2023-08-24T16:07:29;29.60;99.90
1992;DHT22;997;48.448;8.924;2023-08-24T16:09:54;29.50;99.90
1992;DHT22;997;48.448;8.924;2023-08-24T16:12:20;29.30;99.90
1992;DHT22;997;48.448;8.924;2023-08-24T16:14:46;29.20;99.90
1992;DHT22;997;48.448;8.924;2023-08-24T16:17:11;29.20;99.90
1992;DHT22;997;48.448;8.924;2023-08-24T16:19:37;29.10;99.90
1992;DHT22;997;48.448;8.924;2023-08-24T16:22:03;29.10;99.90
1992;DHT22;997;48.448;8.924;2023-08-24T16:24:28;29.00;99.90
1992;DHT22;997;48.448;8.924;2023-08-24T16:26:54;29.00;99.90
1992;DHT22;997;48.448;8.924;2023-08-24T16:29:19;28.90;99.90
1992;DHT22;997;48.448;8.924;2023-08-24T16:31:45;28.80;99.90
1992;DHT22;997;48.448;8.924;2023-08-24T16:34:11;28.80;99.90
1992;DHT22;997;48.448;8.924;2023-08-24T16:36:36;28.60;99.90
1992;DHT22;997;48.448;8.924;2023-08-24T16:39:03;28.60;99.90
1992;DHT22;997;48.448;8.924;2023-08-24T16:41:29;28.70;99.90
1992;DHT22;997;48.448;8.924;2023-08-24T16:43:56;28.70;99.90
1992;DHT22;997;48.448;8.924;2023-08-24T16:46:22;28.80;99.90
1992;DHT22;997;48.448;8.924;2023-08-24T16:48:48;28.80;99.90
1992;DHT22;997;48.448;8.924;2023-08-24T16:51:13;28.90;99.90
1992;DHT22;997;48.448;8.924;2023-08-24T16:53:39;28.90;99.90
1992;DHT22;997;48.448;8.924;2023-08-24T16:56:05;28.90;99.90
1992;DHT22;997;48.448;8.924;2023-08-24T16:58:32;28.90;99.90
1992;DHT22;997;48.448;8.924;2023-08-24T17:01:04;28.70;99.90
1992;DHT22;997;48.448;8.924;2023-08-24T17:03:30;28.80;99.90
1992;DHT22;997;48.448;8.924;2023-08-24T17:05:56;28.80;99.90
1992;DHT22;997;48.448;8.924;2023-08-24T17:08:21;28.80;99.90
1992;DHT22;997;48.448;8.924;2023-08-24T17:10:47;28.80;99.90
1992;DHT22;997;48.448;8.924;2023-08-24T17:13:13;28.80;99.90
1992;DHT22;997;48.448;8.924;2023-08-24T17:15:38;28.80;99.90
1992;DHT22;997;48.448;8.924;2023-08-24T17:18:04;28.70;99.90
1992;DHT22;997;48.448;8.924;2023-08-24T17:20:30;28.60;99.90
1992;DHT22;997;48.448;8.924;2023-08-24T17:22:59;28.60;99.90
1992;DHT22;997;48.448;8.924;2023-08-24T17:25:25;28.60;99.90
1992;DHT22;997;48.448;8.924;2023-08-24T17:27:50;28.50;99.90
1992;DHT22;997;48.448;8.924;2023-08-24T17:30:16;28.60;99.90
1992;DHT22;997;48.448;8.924;2023-08-24T17:32:42;28.60;99.90
1992;DHT22;997;48.448;8.924;2023-08-24T17:35:09;28.60;99.90
1992;DHT22;997;48.448;8.924;2023-08-24T17:37:35;28.50;99.90
1992;DHT22;997;48.448;8.924;2023-08-24T17:40:02;28.20;99.90
1992;DHT22;997;48.448;8.924;2023-08-24T17:42:30;28.30;99.90
1992;DHT22;997;48.448;8.924;2023-08-24T17:44:56;27.90;99.90
1992;DHT22;997;48.448;8.924;2023-08-24T17:47:22;27.90;99.90
1992;DHT22;997;48.448;8.924;2023-08-24T17:49:47;27.70;99.90
1992;DHT22;997;48.448;8.924;2023-08-24T17:52:13;27.70;99.90
1992;DHT22;997;48.448;8.924;2023-08-24T17:54:39;27.80;99.90
1992;DHT22;997;48.448;8.924;2023-08-24T17:57:04;27.70;99.90
1992;DHT22;997;48.448;8.924;2023-08-24T17:59:30;27.70;99.90
1992;DHT22;997;48.448;8.924;2023-08-24T18:01:56;27.70;99.90
1992;DHT22;997;48.448;8.924;2023-08-24T18:04:21;27.70;99.90
1992;DHT22;997;48.448;8.924;2023-08-24T18:06:47;27.60;99.90
1992;DHT22;997;48.448;8.924;2023-08-24T18:09:13;27.70;99.90
1992;DHT22;997;48.448;8.924;2023-08-24T18:11:38;27.80;99.90
1992;DHT22;997;48.448;8.924;2023-08-24T18:14:04;27.80;99.90
1992;DHT22;997;48.448;8.924;2023-08-24T19:01:49;25.70;99.90
1992;DHT22;997;48.448;8.924;2023-08-24T19:04:15;24.40;99.90
1992;DHT22;997;48.448;8.924;2023-08-24T19:06:40;23.20;99.90
1992;DHT22;997;48.448;8.924;2023-08-24T19:09:06;22.70;99.90
1992;DHT22;997;48.448;8.924;2023-08-24T19:11:32;22.40;99.90
1992;DHT22;997;48.448;8.924;2023-08-24T19:13:59;22.00;99.90
1992;DHT22;997;48.448;8.924;2023-08-24T19:16:25;21.70;99.90
1992;DHT22;997;48.448;8.924;2023-08-24T19:18:51;21.80;99.90
1992;DHT22;997;48.448;8.924;2023-08-24T19:21:17;21.80;99.90
1992;DHT22;997;48.448;8.924;2023-08-24T19:23:43;21.50;99.90
1992;DHT22;997;48.448;8.924;2023-08-24T19:26:09;21.20;99.90
1992;DHT22;997;48.448;8.924;2023-08-24T19:28:35;20.90;99.90
1992;DHT22;997;48.448;8.924;2023-08-24T19:31:02;20.50;99.90
1992;DHT22;997;48.448;8.924;2023-08-24T19:33:28;20.30;99.90
1992;DHT22;997;48.448;8.924;2023-08-24T19:35:54;20.20;99.90
1992;DHT22;997;48.448;8.924;2023-08-24T19:38:20;20.20;99.90
1992;DHT22;997;48.448;8.924;2023-08-24T19:40:45;20.30;99.90
1992;DHT22;997;48.448;8.924;2023-08-24T19:43:11;20.40;99.90
1992;DHT22;997;48.448;8.924;2023-08-24T19:45:37;20.50;99.90
1992;DHT22;997;48.448;8.924;2023-08-24T19:48:04;20.70;99.90
1992;DHT22;997;48.448;8.924;2023-08-24T19:50:30;20.80;99.90
1992;DHT22;997;48.448;8.924;2023-08-24T19:52:59;20.90;99.90
1992;DHT22;997;48.448;8.924;2023-08-24T19:55:25;21.00;99.90
1992;DHT22;997;48.448;8.924;2023-08-24T19:57:53;20.90;99.90
1992;DHT22;997;48.448;8.924;2023-08-24T20:00:19;20.80;99.90
1992;DHT22;997;48.448;8.924;2023-08-24T20:02:49;20.70;99.90
1992;DHT22;997;48.448;8.924;2023-08-24T20:05:17;20.50;99.90
1992;DHT22;997;48.448;8.924;2023-08-24T20:07:42;20.30;99.90
1992;DHT22;997;48.448;8.924;2023-08-24T20:10:14;20.10;99.90